sensor_id;sensor_type;location;lat;lon;timestamp;P1;durP1;ratioP1;P2;durP2;ratioP2
44955;SDS011;30686;52.512;-1.188;2022-12-29T00:01:54;11.45;;;2.70;;
44955;SDS011;30686;52.512;-1.188;2022-12-29T00:04:21;8.98;;;2.20;;
44955;SDS011;30686;52.512;-1.188;2022-12-29T00:06:47;22.73;;;3.33;;
44955;SDS011;30686;52.512;-1.188;2022-12-29T00:09:14;18.67;;;3.28;;
44955;SDS011;30686;52.512;-1.188;2022-12-29T00:11:41;8.70;;;2.25;;
44955;SDS011;30686;52.512;-1.188;2022-12-29T00:14:10;7.15;;;1.98;;
44955;SDS011;30686;52.512;-1.188;2022-12-29T00:17:00;12.38;;;1.85;;
44955;SDS011;30686;52.512;-1.188;2022-12-29T00:19:26;11.88;;;2.00;;
44955;SDS011;30686;52.512;-1.188;2022-12-29T00:24:59;17.23;;;2.38;;
44955;SDS011;30686;52.512;-1.188;2022-12-29T00:27:44;18.15;;;3.80;;
44955;SDS011;30686;52.512;-1.188;2022-12-29T00:30:28;7.57;;;1.90;;
44955;SDS011;30686;52.512;-1.188;2022-12-29T00:33:20;17.77;;;2.67;;
44955;SDS011;30686;52.512;-1.188;2022-12-29T00:36:09;16.42;;;2.63;;
44955;SDS011;30686;52.512;-1.188;2022-12-29T00:38:38;15.10;;;2.67;;
44955;SDS011;30686;52.512;-1.188;2022-12-29T00:41:24;14.30;;;2.53;;
44955;SDS011;30686;52.512;-1.188;2022-12-29T00:44:10;13.68;;;3.92;;
44955;SDS011;30686;52.512;-1.188;2022-12-29T00:46:37;7.95;;;2.55;;
44955;SDS011;30686;52.512;-1.188;2022-12-29T00:49:04;13.32;;;2.15;;
44955;SDS011;30686;52.512;-1.188;2022-12-29T00:51:50;6.15;;;1.55;;
44955;SDS011;30686;52.512;-1.188;2022-12-29T00:54:17;11.50;;;2.15;;
44955;SDS011;30686;52.512;-1.188;2022-12-29T00:56:47;8.50;;;1.90;;
44955;SDS011;30686;52.512;-1.188;2022-12-29T00:59:17;9.52;;;2.45;;
44955;SDS011;30686;52.512;-1.188;2022-12-29T01:01:46;18.13;;;2.65;;
44955;SDS011;30686;52.512;-1.188;2022-12-29T01:04:13;8.50;;;2.10;;
44955;SDS011;30686;52.512;-1.188;2022-12-29T01:06:41;10.95;;;2.20;;
44955;SDS011;30686;52.512;-1.188;2022-12-29T01:09:08;13.05;;;3.22;;
44955;SDS011;30686;52.512;-1.188;2022-12-29T01:11:54;9.90;;;2.38;;
44955;SDS011;30686;52.512;-1.188;2022-12-29T01:14:20;9.95;;;2.17;;
44955;SDS011;30686;52.512;-1.188;2022-12-29T01:16:47;12.50;;;2.63;;
44955;SDS011;30686;52.512;-1.188;2022-12-29T01:19:13;13.65;;;2.28;;
44955;SDS011;30686;52.512;-1.188;2022-12-29T01:21:40;10.15;;;2.92;;
44955;SDS011;30686;52.512;-1.188;2022-12-29T01:24:06;15.75;;;2.90;;
44955;SDS011;30686;52.512;-1.188;2022-12-29T01:26:32;14.07;;;2.78;;
44955;SDS011;30686;52.512;-1.188;2022-12-29T01:29:00;8.95;;;1.90;;
44955;SDS011;30686;52.512;-1.188;2022-12-29T01:31:26;18.55;;;2.90;;
44955;SDS011;30686;52.512;-1.188;2022-12-29T01:33:53;11.52;;;2.50;;
44955;SDS011;30686;52.512;-1.188;2022-12-29T01:36:19;7.82;;;1.88;;
44955;SDS011;30686;52.512;-1.188;2022-12-29T01:38:45;13.65;;;1.77;;
44955;SDS011;30686;52.512;-1.188;2022-12-29T01:41:12;7.50;;;1.67;;
44955;SDS011;30686;52.512;-1.188;2022-12-29T01:46:34;13.32;;;2.22;;
44955;SDS011;30686;52.512;-1.188;2022-12-29T01:49:05;14.02;;;3.25;;
44955;SDS011;30686;52.512;-1.188;2022-12-29T01:54:16;11.15;;;2.17;;
44955;SDS011;30686;52.512;-1.188;2022-12-29T01:56:44;12.77;;;2.13;;
44955;SDS011;30686;52.512;-1.188;2022-12-29T01:59:12;13.30;;;2.63;;
44955;SDS011;30686;52.512;-1.188;2022-12-29T02:01:41;7.63;;;2.47;;
44955;SDS011;30686;52.512;-1.188;2022-12-29T02:04:08;15.45;;;2.45;;
44955;SDS011;30686;52.512;-1.188;2022-12-29T02:06:37;14.38;;;2.28;;
44955;SDS011;30686;52.512;-1.188;2022-12-29T02:09:05;12.85;;;3.72;;
44955;SDS011;30686;52.512;-1.188;2022-12-29T02:11:31;15.32;;;1.55;;
44955;SDS011;30686;52.512;-1.188;2022-12-29T02:13:58;12.05;;;2.25;;
44955;SDS011;30686;52.512;-1.188;2022-12-29T02:16:44;2.85;;;1.05;;
44955;SDS011;30686;52.512;-1.188;2022-12-29T02:29:55;15.23;;;2.55;;
44955;SDS011;30686;52.512;-1.188;2022-12-29T02:34:57;7.65;;;2.08;;
44955;SDS011;30686;52.512;-1.188;2022-12-29T02:37:46;7.25;;;2.35;;
44955;SDS011;30686;52.512;-1.188;2022-12-29T02:42:49;7.03;;;1.73;;
44955;SDS011;30686;52.512;-1.188;2022-12-29T02:46:03;9.25;;;1.80;;
44955;SDS011;30686;52.512;-1.188;2022-12-29T02:50:52;4.68;;;1.58;;
44955;SDS011;30686;52.512;-1.188;2022-12-29T02:53:23;8.13;;;2.10;;
44955;SDS011;30686;52.512;-1.188;2022-12-29T02:56:09;11.07;;;1.27;;
44955;SDS011;30686;52.512;-1.188;2022-12-29T02:58:35;8.90;;;1.60;;
44955;SDS011;30686;52.512;-1.188;2022-12-29T03:06:29;12.02;;;2.53;;
44955;SDS011;30686;52.512;-1.188;2022-12-29T03:12:12;8.38;;;1.73;;
44955;SDS011;30686;52.512;-1.188;2022-12-29T03:20:29;7.97;;;2.13;;
44955;SDS011;30686;52.512;-1.188;2022-12-29T03:22:59;5.15;;;1.40;;
44955;SDS011;30686;52.512;-1.188;2022-12-29T03:25:36;3.47;;;1.58;;
44955;SDS011;30686;52.512;-1.188;2022-12-29T03:28:08;11.88;;;2.10;;
44955;SDS011;30686;52.512;-1.188;2022-12-29T03:30:36;5.38;;;1.95;;
44955;SDS011;30686;52.512;-1.188;2022-12-29T03:33:05;9.55;;;2.63;;
44955;SDS011;30686;52.512;-1.188;2022-12-29T03:35:34;8.57;;;2.17;;
44955;SDS011;30686;52.512;-1.188;2022-12-29T03:38:15;9.20;;;2.38;;
44955;SDS011;30686;52.512;-1.188;2022-12-29T03:40:42;14.77;;;3.80;;
44955;SDS011;30686;52.512;-1.188;2022-12-29T03:43:09;4.53;;;1.65;;
44955;SDS011;30686;52.512;-1.188;2022-12-29T03:45:38;7.93;;;1.40;;
44955;SDS011;30686;52.512;-1.188;2022-12-29T03:48:06;7.15;;;1.63;;
44955;SDS011;30686;52.512;-1.188;2022-12-29T03:50:32;6.57;;;1.35;;
44955;SDS011;30686;52.512;-1.188;2022-12-29T03:52:59;6.20;;;1.58;;
44955;SDS011;30686;52.512;-1.188;2022-12-29T03:55:25;11.55;;;1.77;;
44955;SDS011;30686;52.512;-1.188;2022-12-29T03:57:52;4.50;;;1.50;;
44955;SDS011;30686;52.512;-1.188;2022-12-29T04:00:18;9.02;;;1.73;;
44955;SDS011;30686;52.512;-1.188;2022-12-29T04:02:45;7.13;;;1.80;;
44955;SDS011;30686;52.512;-1.188;2022-12-29T04:05:11;10.93;;;2.78;;
44955;SDS011;30686;52.512;-1.188;2022-12-29T04:07:37;6.28;;;1.30;;
44955;SDS011;30686;52.512;-1.188;2022-12-29T04:10:04;3.33;;;1.40;;
44955;SDS011;30686;52.512;-1.188;2022-12-29T04:12:30;3.15;;;0.95;;
44955;SDS011;30686;52.512;-1.188;2022-12-29T04:14:56;1.08;;;0.85;;
44955;SDS011;30686;52.512;-1.188;2022-12-29T04:17:24;3.83;;;0.90;;
44955;SDS011;30686;52.512;-1.188;2022-12-29T04:19:52;1.77;;;0.68;;
44955;SDS011;30686;52.512;-1.188;2022-12-29T04:22:38;3.80;;;1.27;;
44955;SDS011;30686;52.512;-1.188;2022-12-29T04:25:06;3.15;;;1.13;;
44955;SDS011;30686;52.512;-1.188;2022-12-29T04:27:33;5.05;;;1.00;;
44955;SDS011;30686;52.512;-1.188;2022-12-29T04:30:00;3.85;;;0.90;;
44955;SDS011;30686;52.512;-1.188;2022-12-29T04:32:28;3.80;;;1.02;;
44955;SDS011;30686;52.512;-1.188;2022-12-29T04:34:54;3.17;;;0.75;;
44955;SDS011;30686;52.512;-1.188;2022-12-29T04:37:21;2.08;;;0.82;;
44955;SDS011;30686;52.512;-1.188;2022-12-29T04:39:47;3.53;;;0.68;;
44955;SDS011;30686;52.512;-1.188;2022-12-29T04:42:13;0.60;;;0.60;;
44955;SDS011;30686;52.512;-1.188;2022-12-29T04:44:40;1.05;;;0.70;;
44955;SDS011;30686;52.512;-1.188;2022-12-29T04:47:08;3.40;;;0.70;;
44955;SDS011;30686;52.512;-1.188;2022-12-29T04:49:35;3.72;;;0.60;;
44955;SDS011;30686;52.512;-1.188;2022-12-29T04:52:01;0.52;;;0.52;;
44955;SDS011;30686;52.512;-1.188;2022-12-29T04:54:28;0.40;;;0.40;;
44955;SDS011;30686;52.512;-1.188;2022-12-29T04:56:55;0.38;;;0.38;;
44955;SDS011;30686;52.512;-1.188;2022-12-29T04:59:21;0.40;;;0.40;;
44955;SDS011;30686;52.512;-1.188;2022-12-29T05:01:47;2.03;;;0.68;;
44955;SDS011;30686;52.512;-1.188;2022-12-29T05:04:16;1.38;;;0.82;;
44955;SDS011;30686;52.512;-1.188;2022-12-29T05:06:42;0.50;;;0.50;;
44955;SDS011;30686;52.512;-1.188;2022-12-29T05:09:12;1.63;;;0.55;;
44955;SDS011;30686;52.512;-1.188;2022-12-29T05:11:39;0.60;;;0.55;;
44955;SDS011;30686;52.512;-1.188;2022-12-29T05:14:06;1.08;;;0.60;;
44955;SDS011;30686;52.512;-1.188;2022-12-29T05:16:32;4.22;;;0.70;;
44955;SDS011;30686;52.512;-1.188;2022-12-29T05:18:59;0.60;;;0.60;;
44955;SDS011;30686;52.512;-1.188;2022-12-29T05:21:25;0.73;;;0.68;;
44955;SDS011;30686;52.512;-1.188;2022-12-29T05:23:51;1.30;;;0.50;;
44955;SDS011;30686;52.512;-1.188;2022-12-29T05:26:18;0.95;;;0.60;;
44955;SDS011;30686;52.512;-1.188;2022-12-29T05:28:44;0.50;;;0.50;;
44955;SDS011;30686;52.512;-1.188;2022-12-29T05:31:11;1.45;;;0.60;;
44955;SDS011;30686;52.512;-1.188;2022-12-29T05:33:38;0.57;;;0.50;;
44955;SDS011;30686;52.512;-1.188;2022-12-29T05:36:08;3.70;;;0.80;;
44955;SDS011;30686;52.512;-1.188;2022-12-29T05:38:34;0.68;;;0.60;;
44955;SDS011;30686;52.512;-1.188;2022-12-29T05:41:00;3.30;;;0.50;;
44955;SDS011;30686;52.512;-1.188;2022-12-29T05:43:28;0.63;;;0.60;;
44955;SDS011;30686;52.512;-1.188;2022-12-29T05:45:54;0.85;;;0.70;;
44955;SDS011;30686;52.512;-1.188;2022-12-29T05:48:20;1.65;;;0.63;;
44955;SDS011;30686;52.512;-1.188;2022-12-29T05:50:50;0.98;;;0.57;;
44955;SDS011;30686;52.512;-1.188;2022-12-29T05:53:16;1.35;;;0.65;;
44955;SDS011;30686;52.512;-1.188;2022-12-29T05:55:43;1.00;;;0.90;;
44955;SDS011;30686;52.512;-1.188;2022-12-29T05:58:09;1.08;;;0.68;;
44955;SDS011;30686;52.512;-1.188;2022-12-29T06:00:36;3.15;;;0.80;;
44955;SDS011;30686;52.512;-1.188;2022-12-29T06:03:02;1.40;;;1.08;;
44955;SDS011;30686;52.512;-1.188;2022-12-29T06:05:31;3.67;;;0.77;;
44955;SDS011;30686;52.512;-1.188;2022-12-29T06:07:58;0.98;;;0.77;;
44955;SDS011;30686;52.512;-1.188;2022-12-29T06:10:26;0.77;;;0.63;;
44955;SDS011;30686;52.512;-1.188;2022-12-29T06:12:53;1.83;;;0.55;;
44955;SDS011;30686;52.512;-1.188;2022-12-29T06:15:22;1.85;;;0.77;;
44955;SDS011;30686;52.512;-1.188;2022-12-29T06:17:48;0.75;;;0.70;;
44955;SDS011;30686;52.512;-1.188;2022-12-29T06:20:14;0.57;;;0.57;;
44955;SDS011;30686;52.512;-1.188;2022-12-29T06:22:41;1.45;;;0.73;;
44955;SDS011;30686;52.512;-1.188;2022-12-29T06:25:07;3.03;;;0.60;;
44955;SDS011;30686;52.512;-1.188;2022-12-29T06:27:34;4.65;;;1.08;;
44955;SDS011;30686;52.512;-1.188;2022-12-29T06:30:00;2.42;;;0.60;;
44955;SDS011;30686;52.512;-1.188;2022-12-29T06:32:27;0.70;;;0.70;;
44955;SDS011;30686;52.512;-1.188;2022-12-29T06:34:53;2.63;;;0.80;;
44955;SDS011;30686;52.512;-1.188;2022-12-29T06:37:19;4.03;;;0.95;;
44955;SDS011;30686;52.512;-1.188;2022-12-29T06:39:45;4.13;;;0.88;;
44955;SDS011;30686;52.512;-1.188;2022-12-29T06:42:14;1.15;;;0.60;;
44955;SDS011;30686;52.512;-1.188;2022-12-29T06:44:40;4.90;;;0.90;;
44955;SDS011;30686;52.512;-1.188;2022-12-29T06:47:07;2.28;;;0.65;;
44955;SDS011;30686;52.512;-1.188;2022-12-29T06:49:33;1.48;;;0.65;;
44955;SDS011;30686;52.512;-1.188;2022-12-29T06:52:00;2.67;;;0.70;;
44955;SDS011;30686;52.512;-1.188;2022-12-29T06:54:29;0.80;;;0.63;;
44955;SDS011;30686;52.512;-1.188;2022-12-29T06:56:56;3.72;;;0.90;;
44955;SDS011;30686;52.512;-1.188;2022-12-29T06:59:24;4.35;;;0.90;;
44955;SDS011;30686;52.512;-1.188;2022-12-29T07:01:51;1.65;;;0.80;;
44955;SDS011;30686;52.512;-1.188;2022-12-29T07:04:17;1.17;;;0.80;;
44955;SDS011;30686;52.512;-1.188;2022-12-29T07:06:43;3.00;;;0.90;;
44955;SDS011;30686;52.512;-1.188;2022-12-29T07:09:12;19.08;;;0.98;;
44955;SDS011;30686;52.512;-1.188;2022-12-29T07:11:38;0.85;;;0.73;;
44955;SDS011;30686;52.512;-1.188;2022-12-29T07:14:04;0.50;;;0.50;;
44955;SDS011;30686;52.512;-1.188;2022-12-29T07:16:31;3.83;;;0.90;;
44955;SDS011;30686;52.512;-1.188;2022-12-29T07:18:59;2.13;;;0.70;;
44955;SDS011;30686;52.512;-1.188;2022-12-29T07:21:25;3.17;;;0.90;;
44955;SDS011;30686;52.512;-1.188;2022-12-29T07:23:51;3.03;;;0.70;;
44955;SDS011;30686;52.512;-1.188;2022-12-29T07:26:19;1.52;;;0.55;;
44955;SDS011;30686;52.512;-1.188;2022-12-29T07:28:45;0.90;;;0.73;;
44955;SDS011;30686;52.512;-1.188;2022-12-29T07:31:15;1.58;;;0.88;;
44955;SDS011;30686;52.512;-1.188;2022-12-29T07:33:42;1.00;;;0.65;;
44955;SDS011;30686;52.512;-1.188;2022-12-29T07:36:09;4.43;;;1.30;;
44955;SDS011;30686;52.512;-1.188;2022-12-29T07:38:35;2.78;;;0.90;;
44955;SDS011;30686;52.512;-1.188;2022-12-29T07:41:01;1.65;;;0.98;;
44955;SDS011;30686;52.512;-1.188;2022-12-29T07:43:27;0.73;;;0.73;;
44955;SDS011;30686;52.512;-1.188;2022-12-29T07:45:54;1.17;;;0.70;;
44955;SDS011;30686;52.512;-1.188;2022-12-29T07:48:21;3.95;;;0.90;;
44955;SDS011;30686;52.512;-1.188;2022-12-29T07:50:47;3.50;;;1.15;;
44955;SDS011;30686;52.512;-1.188;2022-12-29T07:53:13;0.55;;;0.52;;
44955;SDS011;30686;52.512;-1.188;2022-12-29T07:55:39;1.85;;;0.95;;
44955;SDS011;30686;52.512;-1.188;2022-12-29T07:58:06;3.65;;;0.60;;
44955;SDS011;30686;52.512;-1.188;2022-12-29T08:00:34;3.83;;;1.20;;
44955;SDS011;30686;52.512;-1.188;2022-12-29T08:03:01;2.83;;;0.80;;
44955;SDS011;30686;52.512;-1.188;2022-12-29T08:05:27;1.27;;;0.68;;
44955;SDS011;30686;52.512;-1.188;2022-12-29T08:07:53;2.25;;;0.90;;
44955;SDS011;30686;52.512;-1.188;2022-12-29T08:10:19;1.95;;;0.77;;
44955;SDS011;30686;52.512;-1.188;2022-12-29T08:12:46;2.53;;;0.77;;
44955;SDS011;30686;52.512;-1.188;2022-12-29T08:15:12;1.00;;;0.80;;
44955;SDS011;30686;52.512;-1.188;2022-12-29T08:17:38;3.22;;;1.45;;
44955;SDS011;30686;52.512;-1.188;2022-12-29T08:20:04;1.30;;;0.70;;
44955;SDS011;30686;52.512;-1.188;2022-12-29T08:22:31;1.65;;;0.93;;
44955;SDS011;30686;52.512;-1.188;2022-12-29T08:25:00;4.38;;;1.70;;
44955;SDS011;30686;52.512;-1.188;2022-12-29T08:27:26;0.98;;;0.80;;
44955;SDS011;30686;52.512;-1.188;2022-12-29T08:29:53;2.67;;;0.98;;
44955;SDS011;30686;52.512;-1.188;2022-12-29T08:32:19;3.45;;;0.73;;
44955;SDS011;30686;52.512;-1.188;2022-12-29T08:34:45;8.00;;;1.60;;
44955;SDS011;30686;52.512;-1.188;2022-12-29T08:37:11;3.30;;;1.20;;
44955;SDS011;30686;52.512;-1.188;2022-12-29T08:39:38;3.75;;;0.98;;
44955;SDS011;30686;52.512;-1.188;2022-12-29T08:42:04;7.18;;;0.90;;
44955;SDS011;30686;52.512;-1.188;2022-12-29T08:44:31;2.58;;;0.93;;
44955;SDS011;30686;52.512;-1.188;2022-12-29T08:46:57;2.88;;;0.82;;
44955;SDS011;30686;52.512;-1.188;2022-12-29T08:49:23;6.43;;;1.58;;
44955;SDS011;30686;52.512;-1.188;2022-12-29T08:51:52;1.60;;;0.93;;
44955;SDS011;30686;52.512;-1.188;2022-12-29T08:54:18;2.53;;;1.05;;
44955;SDS011;30686;52.512;-1.188;2022-12-29T08:56:44;2.50;;;1.10;;
44955;SDS011;30686;52.512;-1.188;2022-12-29T08:59:11;3.25;;;0.70;;
44955;SDS011;30686;52.512;-1.188;2022-12-29T09:01:37;1.23;;;1.00;;
44955;SDS011;30686;52.512;-1.188;2022-12-29T09:04:05;6.30;;;1.08;;
44955;SDS011;30686;52.512;-1.188;2022-12-29T09:06:32;5.40;;;1.65;;
44955;SDS011;30686;52.512;-1.188;2022-12-29T09:08:58;3.78;;;0.75;;
44955;SDS011;30686;52.512;-1.188;2022-12-29T09:11:25;1.88;;;1.17;;
44955;SDS011;30686;52.512;-1.188;2022-12-29T09:13:52;1.73;;;0.90;;
44955;SDS011;30686;52.512;-1.188;2022-12-29T09:16:18;5.00;;;1.25;;
44955;SDS011;30686;52.512;-1.188;2022-12-29T09:18:45;0.63;;;0.63;;
44955;SDS011;30686;52.512;-1.188;2022-12-29T09:21:17;4.15;;;1.23;;
44955;SDS011;30686;52.512;-1.188;2022-12-29T09:23:43;6.72;;;1.15;;
44955;SDS011;30686;52.512;-1.188;2022-12-29T09:26:09;6.55;;;2.08;;
44955;SDS011;30686;52.512;-1.188;2022-12-29T09:28:35;4.70;;;1.55;;
44955;SDS011;30686;52.512;-1.188;2022-12-29T09:31:02;3.83;;;1.02;;
44955;SDS011;30686;52.512;-1.188;2022-12-29T09:33:28;7.03;;;1.63;;
44955;SDS011;30686;52.512;-1.188;2022-12-29T09:35:55;3.40;;;0.60;;
44955;SDS011;30686;52.512;-1.188;2022-12-29T09:38:22;2.75;;;1.17;;
44955;SDS011;30686;52.512;-1.188;2022-12-29T09:40:49;3.10;;;0.82;;
44955;SDS011;30686;52.512;-1.188;2022-12-29T09:45:47;5.07;;;1.08;;
44955;SDS011;30686;52.512;-1.188;2022-12-29T09:48:18;2.13;;;1.02;;
44955;SDS011;30686;52.512;-1.188;2022-12-29T09:50:47;8.52;;;1.50;;
44955;SDS011;30686;52.512;-1.188;2022-12-29T09:53:30;5.28;;;1.02;;
44955;SDS011;30686;52.512;-1.188;2022-12-29T09:55:59;3.17;;;1.30;;
44955;SDS011;30686;52.512;-1.188;2022-12-29T09:58:28;1.80;;;1.23;;
44955;SDS011;30686;52.512;-1.188;2022-12-29T10:01:04;2.70;;;0.80;;
44955;SDS011;30686;52.512;-1.188;2022-12-29T10:03:50;3.38;;;1.13;;
44955;SDS011;30686;52.512;-1.188;2022-12-29T10:06:17;5.45;;;1.77;;
44955;SDS011;30686;52.512;-1.188;2022-12-29T10:08:58;3.47;;;0.90;;
44955;SDS011;30686;52.512;-1.188;2022-12-29T10:24:11;2.00;;;0.90;;
44955;SDS011;30686;52.512;-1.188;2022-12-29T10:26:39;2.95;;;1.00;;
44955;SDS011;30686;52.512;-1.188;2022-12-29T10:29:11;4.40;;;0.90;;
44955;SDS011;30686;52.512;-1.188;2022-12-29T10:32:22;1.23;;;0.80;;
44955;SDS011;30686;52.512;-1.188;2022-12-29T10:34:29;3.05;;;0.80;;
44955;SDS011;30686;52.512;-1.188;2022-12-29T10:37:04;4.05;;;1.30;;
44955;SDS011;30686;52.512;-1.188;2022-12-29T10:39:38;6.00;;;1.40;;
44955;SDS011;30686;52.512;-1.188;2022-12-29T10:42:11;2.38;;;1.10;;
44955;SDS011;30686;52.512;-1.188;2022-12-29T10:44:39;4.13;;;1.42;;
44955;SDS011;30686;52.512;-1.188;2022-12-29T10:47:07;4.10;;;1.35;;
44955;SDS011;30686;52.512;-1.188;2022-12-29T10:49:37;9.10;;;1.50;;
44955;SDS011;30686;52.512;-1.188;2022-12-29T10:52:07;6.60;;;2.03;;
44955;SDS011;30686;52.512;-1.188;2022-12-29T10:57:02;6.72;;;0.90;;
44955;SDS011;30686;52.512;-1.188;2022-12-29T10:59:30;3.40;;;1.10;;
44955;SDS011;30686;52.512;-1.188;2022-12-29T11:06:52;5.15;;;1.17;;
44955;SDS011;30686;52.512;-1.188;2022-12-29T11:09:24;3.92;;;1.27;;
44955;SDS011;30686;52.512;-1.188;2022-12-29T11:11:50;5.47;;;1.13;;
44955;SDS011;30686;52.512;-1.188;2022-12-29T11:14:21;4.53;;;1.02;;
44955;SDS011;30686;52.512;-1.188;2022-12-29T11:17:02;3.00;;;1.10;;
44955;SDS011;30686;52.512;-1.188;2022-12-29T11:19:30;4.15;;;1.05;;
44955;SDS011;30686;52.512;-1.188;2022-12-29T11:22:42;5.15;;;1.05;;
44955;SDS011;30686;52.512;-1.188;2022-12-29T11:24:43;2.20;;;0.90;;
44955;SDS011;30686;52.512;-1.188;2022-12-29T11:27:14;7.50;;;1.23;;
44955;SDS011;30686;52.512;-1.188;2022-12-29T11:29:41;3.65;;;0.65;;
44955;SDS011;30686;52.512;-1.188;2022-12-29T11:32:12;4.75;;;1.38;;
44955;SDS011;30686;52.512;-1.188;2022-12-29T11:34:39;7.00;;;0.98;;
44955;SDS011;30686;52.512;-1.188;2022-12-29T11:37:13;4.70;;;1.10;;
44955;SDS011;30686;52.512;-1.188;2022-12-29T11:42:22;1.45;;;0.77;;
44955;SDS011;30686;52.512;-1.188;2022-12-29T11:44:49;5.70;;;1.20;;
44955;SDS011;30686;52.512;-1.188;2022-12-29T11:47:27;8.25;;;1.38;;
44955;SDS011;30686;52.512;-1.188;2022-12-29T11:49:55;2.60;;;1.02;;
44955;SDS011;30686;52.512;-1.188;2022-12-29T11:52:25;6.78;;;1.33;;
44955;SDS011;30686;52.512;-1.188;2022-12-29T11:54:53;1.70;;;1.02;;
44955;SDS011;30686;52.512;-1.188;2022-12-29T11:57:20;6.00;;;1.65;;
44955;SDS011;30686;52.512;-1.188;2022-12-29T11:59:51;7.65;;;1.45;;
44955;SDS011;30686;52.512;-1.188;2022-12-29T12:04:47;4.90;;;1.50;;
44955;SDS011;30686;52.512;-1.188;2022-12-29T12:07:18;6.18;;;1.33;;
44955;SDS011;30686;52.512;-1.188;2022-12-29T12:09:49;3.40;;;1.05;;
44955;SDS011;30686;52.512;-1.188;2022-12-29T12:12:39;6.43;;;1.80;;
44955;SDS011;30686;52.512;-1.188;2022-12-29T12:15:08;6.65;;;1.98;;
44955;SDS011;30686;52.512;-1.188;2022-12-29T12:18:02;7.63;;;1.88;;
44955;SDS011;30686;52.512;-1.188;2022-12-29T12:23:10;9.88;;;1.48;;
44955;SDS011;30686;52.512;-1.188;2022-12-29T12:25:38;6.85;;;1.70;;
44955;SDS011;30686;52.512;-1.188;2022-12-29T12:28:13;3.17;;;1.00;;
44955;SDS011;30686;52.512;-1.188;2022-12-29T12:30:47;0.70;;;0.70;;
44955;SDS011;30686;52.512;-1.188;2022-12-29T12:46:55;8.77;;;2.25;;
44955;SDS011;30686;52.512;-1.188;2022-12-29T12:49:40;4.15;;;1.48;;
44955;SDS011;30686;52.512;-1.188;2022-12-29T12:57:17;1.70;;;1.02;;
44955;SDS011;30686;52.512;-1.188;2022-12-29T12:59:49;6.82;;;1.40;;
44955;SDS011;30686;52.512;-1.188;2022-12-29T13:05:03;7.22;;;1.48;;
44955;SDS011;30686;52.512;-1.188;2022-12-29T13:23:24;12.20;;;2.05;;
44955;SDS011;30686;52.512;-1.188;2022-12-29T13:26:08;7.05;;;2.90;;
44955;SDS011;30686;52.512;-1.188;2022-12-29T13:34:27;5.72;;;1.05;;
44955;SDS011;30686;52.512;-1.188;2022-12-29T13:36:57;7.28;;;2.88;;
44955;SDS011;30686;52.512;-1.188;2022-12-29T13:41:53;8.50;;;1.50;;
44955;SDS011;30686;52.512;-1.188;2022-12-29T13:44:28;8.88;;;1.30;;
44955;SDS011;30686;52.512;-1.188;2022-12-29T13:46:55;3.63;;;1.27;;
44955;SDS011;30686;52.512;-1.188;2022-12-29T13:49:23;6.55;;;1.55;;
44955;SDS011;30686;52.512;-1.188;2022-12-29T13:51:50;7.22;;;1.33;;
44955;SDS011;30686;52.512;-1.188;2022-12-29T13:54:23;4.30;;;1.48;;
44955;SDS011;30686;52.512;-1.188;2022-12-29T13:59:27;1.40;;;1.05;;
44955;SDS011;30686;52.512;-1.188;2022-12-29T14:02:07;8.70;;;1.88;;
44955;SDS011;30686;52.512;-1.188;2022-12-29T14:04:35;6.10;;;1.52;;
44955;SDS011;30686;52.512;-1.188;2022-12-29T14:07:15;3.13;;;1.20;;
44955;SDS011;30686;52.512;-1.188;2022-12-29T14:09:47;7.28;;;3.20;;
44955;SDS011;30686;52.512;-1.188;2022-12-29T14:14:45;6.53;;;1.40;;
44955;SDS011;30686;52.512;-1.188;2022-12-29T14:17:12;5.10;;;1.13;;
44955;SDS011;30686;52.512;-1.188;2022-12-29T14:19:39;11.75;;;2.35;;
44955;SDS011;30686;52.512;-1.188;2022-12-29T14:22:07;8.70;;;1.15;;
44955;SDS011;30686;52.512;-1.188;2022-12-29T14:27:31;5.13;;;1.23;;
44955;SDS011;30686;52.512;-1.188;2022-12-29T14:29:48;4.55;;;1.25;;
44955;SDS011;30686;52.512;-1.188;2022-12-29T14:34:47;4.90;;;1.38;;
44955;SDS011;30686;52.512;-1.188;2022-12-29T14:39:49;7.45;;;1.65;;
44955;SDS011;30686;52.512;-1.188;2022-12-29T14:42:27;8.75;;;1.67;;
44955;SDS011;30686;52.512;-1.188;2022-12-29T14:45:03;6.95;;;1.77;;
44955;SDS011;30686;52.512;-1.188;2022-12-29T14:50:42;3.63;;;1.17;;
44955;SDS011;30686;52.512;-1.188;2022-12-29T14:57:43;6.97;;;1.95;;
44955;SDS011;30686;52.512;-1.188;2022-12-29T15:00:22;4.07;;;1.35;;
44955;SDS011;30686;52.512;-1.188;2022-12-29T15:03:01;3.42;;;1.25;;
44955;SDS011;30686;52.512;-1.188;2022-12-29T15:07:58;2.97;;;1.02;;
44955;SDS011;30686;52.512;-1.188;2022-12-29T15:10:25;2.05;;;0.93;;
44955;SDS011;30686;52.512;-1.188;2022-12-29T15:12:53;6.32;;;0.93;;
44955;SDS011;30686;52.512;-1.188;2022-12-29T15:17:46;4.88;;;1.58;;
44955;SDS011;30686;52.512;-1.188;2022-12-29T15:22:56;4.97;;;1.02;;
44955;SDS011;30686;52.512;-1.188;2022-12-29T15:25:23;8.82;;;2.30;;
44955;SDS011;30686;52.512;-1.188;2022-12-29T15:27:51;4.10;;;1.55;;
44955;SDS011;30686;52.512;-1.188;2022-12-29T15:30:17;10.05;;;1.15;;
44955;SDS011;30686;52.512;-1.188;2022-12-29T15:32:44;7.28;;;2.17;;
44955;SDS011;30686;52.512;-1.188;2022-12-29T15:37:56;3.65;;;1.42;;
44955;SDS011;30686;52.512;-1.188;2022-12-29T15:40:24;9.38;;;2.28;;
44955;SDS011;30686;52.512;-1.188;2022-12-29T15:45:17;6.95;;;2.40;;
44955;SDS011;30686;52.512;-1.188;2022-12-29T15:47:44;9.70;;;2.00;;
44955;SDS011;30686;52.512;-1.188;2022-12-29T15:52:46;6.13;;;1.35;;
44955;SDS011;30686;52.512;-1.188;2022-12-29T15:55:21;3.42;;;1.42;;
44955;SDS011;30686;52.512;-1.188;2022-12-29T15:57:50;1.42;;;0.80;;
44955;SDS011;30686;52.512;-1.188;2022-12-29T16:00:24;7.65;;;1.65;;
44955;SDS011;30686;52.512;-1.188;2022-12-29T16:02:57;9.00;;;1.98;;
44955;SDS011;30686;52.512;-1.188;2022-12-29T16:05:24;7.18;;;1.17;;
44955;SDS011;30686;52.512;-1.188;2022-12-29T16:07:55;5.50;;;1.20;;
44955;SDS011;30686;52.512;-1.188;2022-12-29T16:10:26;7.93;;;1.17;;
44955;SDS011;30686;52.512;-1.188;2022-12-29T16:13:00;4.73;;;1.50;;
44955;SDS011;30686;52.512;-1.188;2022-12-29T16:15:27;8.05;;;2.15;;
44955;SDS011;30686;52.512;-1.188;2022-12-29T16:17:53;4.35;;;1.35;;
44955;SDS011;30686;52.512;-1.188;2022-12-29T16:20:25;1.75;;;0.90;;
44955;SDS011;30686;52.512;-1.188;2022-12-29T16:22:56;6.35;;;2.17;;
44955;SDS011;30686;52.512;-1.188;2022-12-29T16:25:27;5.45;;;1.52;;
44955;SDS011;30686;52.512;-1.188;2022-12-29T16:27:57;5.75;;;2.10;;
44955;SDS011;30686;52.512;-1.188;2022-12-29T16:30:25;5.97;;;1.00;;
44955;SDS011;30686;52.512;-1.188;2022-12-29T16:32:53;5.35;;;1.42;;
44955;SDS011;30686;52.512;-1.188;2022-12-29T16:35:20;3.75;;;1.33;;
44955;SDS011;30686;52.512;-1.188;2022-12-29T16:40:38;5.03;;;1.23;;
44955;SDS011;30686;52.512;-1.188;2022-12-29T16:43:19;5.45;;;1.20;;
44955;SDS011;30686;52.512;-1.188;2022-12-29T16:50:41;5.10;;;1.40;;
44955;SDS011;30686;52.512;-1.188;2022-12-29T16:53:41;7.30;;;1.42;;
44955;SDS011;30686;52.512;-1.188;2022-12-29T16:56:13;4.65;;;1.55;;
44955;SDS011;30686;52.512;-1.188;2022-12-29T16:58:40;4.65;;;1.75;;
44955;SDS011;30686;52.512;-1.188;2022-12-29T17:01:06;4.65;;;2.40;;
44955;SDS011;30686;52.512;-1.188;2022-12-29T17:03:43;5.15;;;1.38;;
44955;SDS011;30686;52.512;-1.188;2022-12-29T17:06:14;5.35;;;1.73;;
44955;SDS011;30686;52.512;-1.188;2022-12-29T17:08:41;8.77;;;2.00;;
44955;SDS011;30686;52.512;-1.188;2022-12-29T17:11:15;1.42;;;0.70;;
44955;SDS011;30686;52.512;-1.188;2022-12-29T17:14:03;4.93;;;1.95;;
44955;SDS011;30686;52.512;-1.188;2022-12-29T17:16:29;3.92;;;1.10;;
44955;SDS011;30686;52.512;-1.188;2022-12-29T17:22:22;7.90;;;1.27;;
44955;SDS011;30686;52.512;-1.188;2022-12-29T17:24:50;8.48;;;1.33;;
44955;SDS011;30686;52.512;-1.188;2022-12-29T17:27:38;4.63;;;1.40;;
44955;SDS011;30686;52.512;-1.188;2022-12-29T17:30:10;3.03;;;1.13;;
44955;SDS011;30686;52.512;-1.188;2022-12-29T17:32:37;4.47;;;1.10;;